Airfield :
LOGIN :

Register | Disclaimer

   EN    FR    IT 

 










Legend :    VFR   Marginal VFR   IFR   Intensive IFR   Very Intensive IFR
Visi :
Ceiling :
>= 8 km
>= 3000ft
5 to 8 km
1000 to 3000 ft
1500m to 5 km
500 to 1000 ft
800 to 1500m
200 to 500 ft
< 800m
< 200 ft
Symbols :   Thunderstorms  Fog  Heavy snow  Heavy precipitations  Wind > 20 kt
SIGMETs :     Misc.  Thunderstorms  Icing  Turbulence  Mountain Waves  Volcanic Ashes






- Airport Elevation : 1302 ft
- IATA code : GNB


LFLS - Grenoble / St. Geoirs

CURRENT METAR :
  • 242030Z AUTO 36007KT 330V030 CAVOK 14/07 Q1029

EXPIRED METARs :
  • 242000Z AUTO 34008KT CAVOK 15/07 Q1029
  • 241930Z AUTO 34009KT CAVOK 15/07 Q1029
  • 241900Z AUTO 34010KT CAVOK 16/07 Q1029 NOSIG
  • 241830Z AUTO 34010KT CAVOK 17/07 Q1029 NOSIG
  • 241800Z AUTO 35011KT 320V020 CAVOK 18/07 Q1029 NOSIG

TAF TAF LFLS
Valid from the 24 at 15:00 until the 25 at 15:00 UTC


241400Z 2415/2515 36012KT 9999 SCT050
PROB40
TEMPO 2415/2418 36015G25KT
BECMG 2420/2422 VRB03KT CAVOK
BECMG 2508/2510 36010KT
ATIS : +33 4 76 65 55 89



MET'MAP, your aeronautical weather chart ! - Copyright ORBIFLY December 2007 - Disclaimer

ORBIFLY MET'MAP TEAM :

Programming & Development : Alexandra Zaïnal
Concept & original design : Baudouin d'Aumeries
Assistance for programming : Marc-Olivier Méhu
Technical & hardware support : Manuel Goepfert

Contact : metmap@orbifly.com




SOURCES & CREDITS :

   NOAA